Falcon, Missouri
Current Conditions -  °F | °C
As of 9:58 PM on Monday 20 Oct 2014 (Local Time) from KTBN Reporting Station
Clear Clear  
Wind Chill: 53°   Ceiling: Unl
Heat Index: 53°   Visibility: 10mi
Dew Point: 49°   Wind: 0mph
Humidity: 86%   Direction: NA
Pressure: 30.06"   Gusts: NA
Location:  37.61°N, 92.38°W
Report Text: KTBN 210258Z AUTO 00000KT 10SM CLR 12/10 A3006 RMK AO2 SLP180 T01190097 52014
Loading
Personal Weather Stations






























Interactive Weather Map
Tropical Storm Tracking
New forecast layout! Learn more

10-Day Weather Forecast

Advertisements
Track Severe Weather on mobile